Trent, South Dakota
Current Conditions -  °F | °C
As of 9:14 AM on Wednesday 22 Oct 2014 (Local Time) from KPQN Reporting Station
Scattered Clouds Scattered Clouds  
Wind Chill: 54°   Ceiling: Unl
Heat Index: 54°   Visibility: 10mi
Dew Point: 43°   Wind: 21mph
Humidity: 67%   Direction: 170°S
Pressure: 30"   Gusts: 28mph
Location:  43.91°N, 96.65°W
Report Text: KPQN 221414Z AUTO 17018G24KT 10SM SCT085 12/06 A3000 RMK AO2
Loading
Personal Weather Stations






























Interactive Weather Map
Tropical Storm Tracking
New forecast layout! Learn more

10-Day Weather Forecast

Advertisements
Track Severe Weather on mobile